sensor_id;sensor_type;location;lat;lon;timestamp;P1;durP1;ratioP1;P2;durP2;ratioP2
4290;SDS011;2159;50.906;7.152;2023-08-24T00:01:12;6.43;;;3.93;;
4290;SDS011;2159;50.906;7.152;2023-08-24T00:03:41;10.73;;;3.77;;
4290;SDS011;2159;50.906;7.152;2023-08-24T00:06:09;7.20;;;3.70;;
4290;SDS011;2159;50.906;7.152;2023-08-24T00:08:37;7.27;;;4.10;;
4290;SDS011;2159;50.906;7.152;2023-08-24T00:11:04;7.10;;;4.10;;
4290;SDS011;2159;50.906;7.152;2023-08-24T00:13:35;4.60;;;4.10;;
4290;SDS011;2159;50.906;7.152;2023-08-24T00:16:03;5.33;;;4.17;;
4290;SDS011;2159;50.906;7.152;2023-08-24T00:18:30;6.30;;;4.13;;
4290;SDS011;2159;50.906;7.152;2023-08-24T00:20:59;5.13;;;4.00;;
4290;SDS011;2159;50.906;7.152;2023-08-24T00:23:26;5.90;;;4.00;;
4290;SDS011;2159;50.906;7.152;2023-08-24T00:25:54;7.47;;;3.93;;
4290;SDS011;2159;50.906;7.152;2023-08-24T00:28:22;8.07;;;4.20;;
4290;SDS011;2159;50.906;7.152;2023-08-24T00:30:51;6.27;;;4.00;;
4290;SDS011;2159;50.906;7.152;2023-08-24T00:33:18;6.23;;;4.30;;
4290;SDS011;2159;50.906;7.152;2023-08-24T00:35:46;6.30;;;4.17;;
4290;SDS011;2159;50.906;7.152;2023-08-24T00:38:14;6.73;;;4.30;;
4290;SDS011;2159;50.906;7.152;2023-08-24T00:40:41;8.63;;;4.37;;
4290;SDS011;2159;50.906;7.152;2023-08-24T00:43:10;7.80;;;4.30;;
4290;SDS011;2159;50.906;7.152;2023-08-24T00:45:38;5.80;;;3.83;;
4290;SDS011;2159;50.906;7.152;2023-08-24T00:48:07;4.50;;;3.90;;
4290;SDS011;2159;50.906;7.152;2023-08-24T00:50:35;6.20;;;4.37;;
4290;SDS011;2159;50.906;7.152;2023-08-24T00:53:04;8.73;;;4.27;;
4290;SDS011;2159;50.906;7.152;2023-08-24T00:55:34;6.33;;;4.27;;
4290;SDS011;2159;50.906;7.152;2023-08-24T00:58:03;9.70;;;4.23;;
4290;SDS011;2159;50.906;7.152;2023-08-24T01:00:33;8.47;;;4.30;;
4290;SDS011;2159;50.906;7.152;2023-08-24T01:03:02;6.50;;;4.33;;
4290;SDS011;2159;50.906;7.152;2023-08-24T01:05:31;6.20;;;4.27;;
4290;SDS011;2159;50.906;7.152;2023-08-24T01:07:58;6.03;;;4.27;;
4290;SDS011;2159;50.906;7.152;2023-08-24T01:10:27;8.77;;;4.20;;
4290;SDS011;2159;50.906;7.152;2023-08-24T01:12:59;5.90;;;4.43;;
4290;SDS011;2159;50.906;7.152;2023-08-24T01:15:32;3.70;;;3.40;;
4290;SDS011;2159;50.906;7.152;2023-08-24T01:18:04;7.43;;;4.33;;
4290;SDS011;2159;50.906;7.152;2023-08-24T01:20:34;8.90;;;4.07;;
4290;SDS011;2159;50.906;7.152;2023-08-24T01:23:04;5.73;;;4.00;;
4290;SDS011;2159;50.906;7.152;2023-08-24T01:25:37;4.80;;;3.93;;
4290;SDS011;2159;50.906;7.152;2023-08-24T01:28:07;5.70;;;4.17;;
4290;SDS011;2159;50.906;7.152;2023-08-24T01:30:36;8.03;;;4.53;;
4290;SDS011;2159;50.906;7.152;2023-08-24T01:33:04;6.43;;;3.73;;
4290;SDS011;2159;50.906;7.152;2023-08-24T01:35:32;7.27;;;4.20;;
4290;SDS011;2159;50.906;7.152;2023-08-24T01:37:59;6.37;;;4.03;;
4290;SDS011;2159;50.906;7.152;2023-08-24T01:40:31;8.73;;;3.87;;
4290;SDS011;2159;50.906;7.152;2023-08-24T01:43:02;9.53;;;4.40;;
4290;SDS011;2159;50.906;7.152;2023-08-24T01:45:33;7.83;;;4.50;;
4290;SDS011;2159;50.906;7.152;2023-08-24T01:48:01;9.10;;;4.57;;
4290;SDS011;2159;50.906;7.152;2023-08-24T01:50:30;6.07;;;3.90;;
4290;SDS011;2159;50.906;7.152;2023-08-24T01:52:58;6.77;;;4.13;;
4290;SDS011;2159;50.906;7.152;2023-08-24T01:55:26;9.37;;;4.03;;
4290;SDS011;2159;50.906;7.152;2023-08-24T01:57:54;6.33;;;3.90;;
4290;SDS011;2159;50.906;7.152;2023-08-24T02:00:22;6.70;;;4.10;;
4290;SDS011;2159;50.906;7.152;2023-08-24T02:02:52;6.30;;;4.00;;
4290;SDS011;2159;50.906;7.152;2023-08-24T02:05:19;5.27;;;4.20;;
4290;SDS011;2159;50.906;7.152;2023-08-24T02:07:47;9.03;;;4.30;;
4290;SDS011;2159;50.906;7.152;2023-08-24T02:10:15;6.87;;;4.03;;
4290;SDS011;2159;50.906;7.152;2023-08-24T02:12:42;10.90;;;4.27;;
4290;SDS011;2159;50.906;7.152;2023-08-24T02:15:10;7.13;;;3.80;;
4290;SDS011;2159;50.906;7.152;2023-08-24T02:17:38;7.00;;;3.47;;
4290;SDS011;2159;50.906;7.152;2023-08-24T02:20:07;10.70;;;4.20;;
4290;SDS011;2159;50.906;7.152;2023-08-24T02:22:35;12.20;;;4.23;;
4290;SDS011;2159;50.906;7.152;2023-08-24T02:25:03;8.90;;;4.10;;
4290;SDS011;2159;50.906;7.152;2023-08-24T02:27:31;11.83;;;4.33;;
4290;SDS011;2159;50.906;7.152;2023-08-24T02:29:59;6.73;;;4.10;;
4290;SDS011;2159;50.906;7.152;2023-08-24T02:32:26;6.30;;;4.17;;
4290;SDS011;2159;50.906;7.152;2023-08-24T02:34:54;9.70;;;4.33;;
4290;SDS011;2159;50.906;7.152;2023-08-24T02:37:23;4.90;;;4.40;;
4290;SDS011;2159;50.906;7.152;2023-08-24T02:39:50;7.20;;;4.10;;
4290;SDS011;2159;50.906;7.152;2023-08-24T02:42:18;6.20;;;4.00;;
4290;SDS011;2159;50.906;7.152;2023-08-24T02:44:45;7.77;;;4.47;;
4290;SDS011;2159;50.906;7.152;2023-08-24T02:47:13;6.07;;;4.20;;
4290;SDS011;2159;50.906;7.152;2023-08-24T02:49:41;8.73;;;4.60;;
4290;SDS011;2159;50.906;7.152;2023-08-24T02:52:08;8.10;;;3.77;;
4290;SDS011;2159;50.906;7.152;2023-08-24T02:54:37;7.20;;;3.70;;
4290;SDS011;2159;50.906;7.152;2023-08-24T02:57:05;7.87;;;3.63;;
4290;SDS011;2159;50.906;7.152;2023-08-24T02:59:32;7.50;;;4.00;;
4290;SDS011;2159;50.906;7.152;2023-08-24T03:02:00;5.57;;;4.27;;
4290;SDS011;2159;50.906;7.152;2023-08-24T03:04:28;8.03;;;4.00;;
4290;SDS011;2159;50.906;7.152;2023-08-24T03:06:55;5.80;;;4.20;;
4290;SDS011;2159;50.906;7.152;2023-08-24T03:09:23;6.77;;;4.03;;
4290;SDS011;2159;50.906;7.152;2023-08-24T03:11:52;4.30;;;3.90;;
4290;SDS011;2159;50.906;7.152;2023-08-24T03:14:19;6.20;;;4.10;;
4290;SDS011;2159;50.906;7.152;2023-08-24T03:16:47;5.23;;;3.90;;
4290;SDS011;2159;50.906;7.152;2023-08-24T03:19:14;5.80;;;3.73;;
4290;SDS011;2159;50.906;7.152;2023-08-24T03:21:44;5.30;;;3.73;;
4290;SDS011;2159;50.906;7.152;2023-08-24T03:24:11;6.63;;;3.87;;
4290;SDS011;2159;50.906;7.152;2023-08-24T03:26:39;6.87;;;3.80;;
4290;SDS011;2159;50.906;7.152;2023-08-24T03:29:08;6.03;;;4.00;;
4290;SDS011;2159;50.906;7.152;2023-08-24T03:31:35;7.67;;;3.83;;
4290;SDS011;2159;50.906;7.152;2023-08-24T03:34:03;5.47;;;3.90;;
4290;SDS011;2159;50.906;7.152;2023-08-24T03:36:31;5.40;;;3.80;;
4290;SDS011;2159;50.906;7.152;2023-08-24T03:38:58;5.33;;;3.93;;
4290;SDS011;2159;50.906;7.152;2023-08-24T03:41:26;6.53;;;4.20;;
4290;SDS011;2159;50.906;7.152;2023-08-24T03:43:53;6.60;;;4.00;;
4290;SDS011;2159;50.906;7.152;2023-08-24T03:46:25;6.27;;;4.10;;
4290;SDS011;2159;50.906;7.152;2023-08-24T03:48:52;8.70;;;4.20;;
4290;SDS011;2159;50.906;7.152;2023-08-24T03:51:22;4.93;;;3.90;;
4290;SDS011;2159;50.906;7.152;2023-08-24T03:53:50;6.20;;;3.90;;
4290;SDS011;2159;50.906;7.152;2023-08-24T03:56:18;4.10;;;3.70;;
4290;SDS011;2159;50.906;7.152;2023-08-24T03:58:47;3.70;;;3.40;;
4290;SDS011;2159;50.906;7.152;2023-08-24T04:01:15;7.63;;;3.77;;
4290;SDS011;2159;50.906;7.152;2023-08-24T04:03:44;6.77;;;4.10;;
4290;SDS011;2159;50.906;7.152;2023-08-24T04:06:11;8.90;;;4.10;;
4290;SDS011;2159;50.906;7.152;2023-08-24T04:08:39;6.30;;;4.00;;
4290;SDS011;2159;50.906;7.152;2023-08-24T04:11:07;6.60;;;3.73;;
4290;SDS011;2159;50.906;7.152;2023-08-24T04:13:34;5.70;;;4.07;;
4290;SDS011;2159;50.906;7.152;2023-08-24T04:16:02;11.73;;;4.43;;
4290;SDS011;2159;50.906;7.152;2023-08-24T04:18:30;6.30;;;4.10;;
4290;SDS011;2159;50.906;7.152;2023-08-24T04:20:59;9.63;;;3.93;;
4290;SDS011;2159;50.906;7.152;2023-08-24T04:23:27;8.70;;;4.17;;
4290;SDS011;2159;50.906;7.152;2023-08-24T04:25:54;5.93;;;4.10;;
4290;SDS011;2159;50.906;7.152;2023-08-24T04:28:22;5.43;;;4.40;;
4290;SDS011;2159;50.906;7.152;2023-08-24T04:30:50;5.93;;;4.20;;
4290;SDS011;2159;50.906;7.152;2023-08-24T04:33:18;7.13;;;4.47;;
4290;SDS011;2159;50.906;7.152;2023-08-24T04:35:46;5.20;;;3.90;;
4290;SDS011;2159;50.906;7.152;2023-08-24T04:38:15;8.93;;;4.17;;
4290;SDS011;2159;50.906;7.152;2023-08-24T04:40:47;7.23;;;4.20;;
4290;SDS011;2159;50.906;7.152;2023-08-24T04:43:15;4.70;;;4.30;;
4290;SDS011;2159;50.906;7.152;2023-08-24T04:45:45;5.90;;;4.60;;
4290;SDS011;2159;50.906;7.152;2023-08-24T04:48:13;5.03;;;4.43;;
4290;SDS011;2159;50.906;7.152;2023-08-24T04:50:41;4.67;;;4.27;;
4290;SDS011;2159;50.906;7.152;2023-08-24T04:53:12;9.60;;;5.00;;
4290;SDS011;2159;50.906;7.152;2023-08-24T04:55:42;7.37;;;4.50;;
4290;SDS011;2159;50.906;7.152;2023-08-24T04:58:10;7.23;;;4.57;;
4290;SDS011;2159;50.906;7.152;2023-08-24T05:00:37;15.43;;;5.30;;
4290;SDS011;2159;50.906;7.152;2023-08-24T05:03:06;6.87;;;4.53;;
4290;SDS011;2159;50.906;7.152;2023-08-24T05:05:34;8.30;;;4.90;;
4290;SDS011;2159;50.906;7.152;2023-08-24T05:08:03;8.00;;;4.90;;
4290;SDS011;2159;50.906;7.152;2023-08-24T05:10:32;6.57;;;4.70;;
4290;SDS011;2159;50.906;7.152;2023-08-24T05:13:01;7.77;;;5.10;;
4290;SDS011;2159;50.906;7.152;2023-08-24T05:15:29;10.10;;;5.20;;
4290;SDS011;2159;50.906;7.152;2023-08-24T05:17:57;14.73;;;5.70;;
4290;SDS011;2159;50.906;7.152;2023-08-24T05:20:26;6.03;;;5.03;;
4290;SDS011;2159;50.906;7.152;2023-08-24T05:22:53;8.17;;;5.10;;
4290;SDS011;2159;50.906;7.152;2023-08-24T05:25:22;8.03;;;5.80;;
4290;SDS011;2159;50.906;7.152;2023-08-24T05:27:50;11.00;;;5.77;;
4290;SDS011;2159;50.906;7.152;2023-08-24T05:30:19;5.90;;;4.77;;
4290;SDS011;2159;50.906;7.152;2023-08-24T05:32:47;7.30;;;5.40;;
4290;SDS011;2159;50.906;7.152;2023-08-24T05:35:15;6.80;;;5.00;;
4290;SDS011;2159;50.906;7.152;2023-08-24T05:37:43;7.60;;;5.40;;
4290;SDS011;2159;50.906;7.152;2023-08-24T05:40:11;6.70;;;4.90;;
4290;SDS011;2159;50.906;7.152;2023-08-24T05:42:38;7.53;;;5.17;;
4290;SDS011;2159;50.906;7.152;2023-08-24T05:45:06;7.97;;;5.40;;
4290;SDS011;2159;50.906;7.152;2023-08-24T05:47:35;6.73;;;5.10;;
4290;SDS011;2159;50.906;7.152;2023-08-24T05:50:03;7.20;;;5.20;;
4290;SDS011;2159;50.906;7.152;2023-08-24T05:52:31;6.40;;;4.73;;
4290;SDS011;2159;50.906;7.152;2023-08-24T05:54:59;7.23;;;5.03;;
4290;SDS011;2159;50.906;7.152;2023-08-24T05:57:26;6.97;;;5.10;;
4290;SDS011;2159;50.906;7.152;2023-08-24T05:59:57;7.67;;;5.23;;
4290;SDS011;2159;50.906;7.152;2023-08-24T06:02:24;7.10;;;5.30;;
4290;SDS011;2159;50.906;7.152;2023-08-24T06:04:53;6.50;;;5.27;;
4290;SDS011;2159;50.906;7.152;2023-08-24T06:07:21;6.60;;;5.10;;
4290;SDS011;2159;50.906;7.152;2023-08-24T06:09:49;9.47;;;4.80;;
4290;SDS011;2159;50.906;7.152;2023-08-24T06:12:16;5.83;;;4.60;;
4290;SDS011;2159;50.906;7.152;2023-08-24T06:14:44;8.50;;;4.83;;
4290;SDS011;2159;50.906;7.152;2023-08-24T06:17:11;5.10;;;4.60;;
4290;SDS011;2159;50.906;7.152;2023-08-24T06:19:39;4.70;;;4.20;;
4290;SDS011;2159;50.906;7.152;2023-08-24T06:22:08;5.37;;;4.73;;
4290;SDS011;2159;50.906;7.152;2023-08-24T06:24:36;6.17;;;5.17;;
4290;SDS011;2159;50.906;7.152;2023-08-24T06:27:04;6.77;;;5.10;;
4290;SDS011;2159;50.906;7.152;2023-08-24T06:29:31;6.33;;;4.60;;
4290;SDS011;2159;50.906;7.152;2023-08-24T06:32:03;5.77;;;4.70;;
4290;SDS011;2159;50.906;7.152;2023-08-24T06:34:30;7.63;;;5.30;;
4290;SDS011;2159;50.906;7.152;2023-08-24T06:37:00;6.23;;;4.57;;
4290;SDS011;2159;50.906;7.152;2023-08-24T06:39:29;5.53;;;4.90;;
4290;SDS011;2159;50.906;7.152;2023-08-24T06:41:56;5.60;;;4.97;;
4290;SDS011;2159;50.906;7.152;2023-08-24T06:44:24;6.37;;;4.50;;
4290;SDS011;2159;50.906;7.152;2023-08-24T06:46:52;5.97;;;4.60;;
4290;SDS011;2159;50.906;7.152;2023-08-24T06:49:19;4.60;;;4.13;;
4290;SDS011;2159;50.906;7.152;2023-08-24T06:51:47;3.97;;;3.67;;
4290;SDS011;2159;50.906;7.152;2023-08-24T06:54:14;5.80;;;4.53;;
4290;SDS011;2159;50.906;7.152;2023-08-24T06:56:43;4.27;;;3.80;;
4290;SDS011;2159;50.906;7.152;2023-08-24T06:59:11;6.13;;;4.00;;
4290;SDS011;2159;50.906;7.152;2023-08-24T07:01:39;4.70;;;4.17;;
4290;SDS011;2159;50.906;7.152;2023-08-24T07:04:07;5.17;;;3.60;;
4290;SDS011;2159;50.906;7.152;2023-08-24T07:06:35;7.23;;;4.10;;
4290;SDS011;2159;50.906;7.152;2023-08-24T07:09:03;4.10;;;3.70;;
4290;SDS011;2159;50.906;7.152;2023-08-24T07:11:33;4.43;;;4.03;;
4290;SDS011;2159;50.906;7.152;2023-08-24T07:14:02;6.27;;;3.93;;
4290;SDS011;2159;50.906;7.152;2023-08-24T07:16:29;8.00;;;4.20;;
4290;SDS011;2159;50.906;7.152;2023-08-24T07:18:57;5.30;;;3.70;;
4290;SDS011;2159;50.906;7.152;2023-08-24T07:21:24;5.70;;;4.37;;
4290;SDS011;2159;50.906;7.152;2023-08-24T07:23:52;10.13;;;3.80;;
4290;SDS011;2159;50.906;7.152;2023-08-24T07:26:20;7.17;;;3.77;;
4290;SDS011;2159;50.906;7.152;2023-08-24T07:28:47;4.57;;;4.00;;
4290;SDS011;2159;50.906;7.152;2023-08-24T07:31:16;3.93;;;3.53;;
4290;SDS011;2159;50.906;7.152;2023-08-24T07:33:45;4.27;;;3.50;;
4290;SDS011;2159;50.906;7.152;2023-08-24T07:36:12;6.57;;;3.43;;
4290;SDS011;2159;50.906;7.152;2023-08-24T07:38:40;4.20;;;3.80;;
4290;SDS011;2159;50.906;7.152;2023-08-24T07:41:07;6.83;;;4.10;;
4290;SDS011;2159;50.906;7.152;2023-08-24T07:43:37;4.53;;;3.40;;
4290;SDS011;2159;50.906;7.152;2023-08-24T07:46:04;4.47;;;3.50;;
4290;SDS011;2159;50.906;7.152;2023-08-24T07:48:35;5.80;;;3.70;;
4290;SDS011;2159;50.906;7.152;2023-08-24T07:51:03;7.10;;;3.60;;
4290;SDS011;2159;50.906;7.152;2023-08-24T07:53:30;4.43;;;3.83;;
4290;SDS011;2159;50.906;7.152;2023-08-24T07:55:59;4.60;;;3.80;;
4290;SDS011;2159;50.906;7.152;2023-08-24T07:58:27;8.47;;;4.20;;
4290;SDS011;2159;50.906;7.152;2023-08-24T08:00:57;4.47;;;3.90;;
4290;SDS011;2159;50.906;7.152;2023-08-24T08:03:25;5.17;;;3.50;;
4290;SDS011;2159;50.906;7.152;2023-08-24T08:05:54;4.83;;;3.60;;
4290;SDS011;2159;50.906;7.152;2023-08-24T08:08:22;7.30;;;3.47;;
4290;SDS011;2159;50.906;7.152;2023-08-24T08:10:57;4.00;;;3.60;;
4290;SDS011;2159;50.906;7.152;2023-08-24T08:13:24;4.50;;;3.77;;
4290;SDS011;2159;50.906;7.152;2023-08-24T08:15:52;5.57;;;3.50;;
4290;SDS011;2159;50.906;7.152;2023-08-24T08:18:19;5.57;;;3.37;;
4290;SDS011;2159;50.906;7.152;2023-08-24T08:20:50;4.10;;;3.50;;
4290;SDS011;2159;50.906;7.152;2023-08-24T08:23:19;3.97;;;3.57;;
4290;SDS011;2159;50.906;7.152;2023-08-24T08:25:46;3.67;;;3.37;;
4290;SDS011;2159;50.906;7.152;2023-08-24T08:28:14;4.70;;;3.40;;
4290;SDS011;2159;50.906;7.152;2023-08-24T08:30:42;5.67;;;3.70;;
4290;SDS011;2159;50.906;7.152;2023-08-24T08:33:10;4.23;;;3.23;;
4290;SDS011;2159;50.906;7.152;2023-08-24T08:35:38;3.80;;;3.43;;
4290;SDS011;2159;50.906;7.152;2023-08-24T08:38:06;4.37;;;3.60;;
4290;SDS011;2159;50.906;7.152;2023-08-24T08:40:36;7.80;;;3.40;;
4290;SDS011;2159;50.906;7.152;2023-08-24T08:43:05;6.10;;;3.27;;
4290;SDS011;2159;50.906;7.152;2023-08-24T08:45:33;5.27;;;3.60;;
4290;SDS011;2159;50.906;7.152;2023-08-24T08:48:01;3.63;;;3.30;;
4290;SDS011;2159;50.906;7.152;2023-08-24T08:50:30;3.50;;;3.20;;
4290;SDS011;2159;50.906;7.152;2023-08-24T08:52:59;5.00;;;3.23;;
4290;SDS011;2159;50.906;7.152;2023-08-24T08:55:26;7.87;;;3.37;;
4290;SDS011;2159;50.906;7.152;2023-08-24T08:57:57;4.30;;;3.30;;
4290;SDS011;2159;50.906;7.152;2023-08-24T09:00:25;3.53;;;3.23;;
4290;SDS011;2159;50.906;7.152;2023-08-24T09:02:54;5.67;;;3.37;;
4290;SDS011;2159;50.906;7.152;2023-08-24T09:05:22;4.67;;;3.83;;
4290;SDS011;2159;50.906;7.152;2023-08-24T09:07:52;4.63;;;3.10;;
4290;SDS011;2159;50.906;7.152;2023-08-24T09:10:20;4.53;;;3.47;;
4290;SDS011;2159;50.906;7.152;2023-08-24T09:12:48;6.13;;;3.23;;
4290;SDS011;2159;50.906;7.152;2023-08-24T09:15:24;5.00;;;3.50;;
4290;SDS011;2159;50.906;7.152;2023-08-24T09:17:53;5.40;;;3.10;;
4290;SDS011;2159;50.906;7.152;2023-08-24T09:20:21;5.60;;;3.20;;
4290;SDS011;2159;50.906;7.152;2023-08-24T09:22:48;4.80;;;3.07;;
4290;SDS011;2159;50.906;7.152;2023-08-24T09:25:17;3.60;;;2.80;;
4290;SDS011;2159;50.906;7.152;2023-08-24T09:27:44;3.70;;;3.40;;
4290;SDS011;2159;50.906;7.152;2023-08-24T09:30:12;3.40;;;3.10;;
4290;SDS011;2159;50.906;7.152;2023-08-24T09:32:43;7.57;;;3.40;;
4290;SDS011;2159;50.906;7.152;2023-08-24T09:35:11;3.73;;;3.43;;
4290;SDS011;2159;50.906;7.152;2023-08-24T09:37:39;4.53;;;3.50;;
4290;SDS011;2159;50.906;7.152;2023-08-24T09:40:08;5.03;;;2.93;;
4290;SDS011;2159;50.906;7.152;2023-08-24T09:42:38;3.57;;;3.13;;
4290;SDS011;2159;50.906;7.152;2023-08-24T09:45:07;3.40;;;3.10;;
4290;SDS011;2159;50.906;7.152;2023-08-24T09:47:36;4.37;;;3.50;;
4290;SDS011;2159;50.906;7.152;2023-08-24T09:50:05;4.60;;;3.43;;
4290;SDS011;2159;50.906;7.152;2023-08-24T09:52:34;3.30;;;3.10;;
4290;SDS011;2159;50.906;7.152;2023-08-24T09:55:04;7.50;;;3.07;;
4290;SDS011;2159;50.906;7.152;2023-08-24T09:57:33;7.27;;;3.33;;
4290;SDS011;2159;50.906;7.152;2023-08-24T10:00:03;3.70;;;3.20;;
4290;SDS011;2159;50.906;7.152;2023-08-24T10:02:36;5.33;;;3.27;;
4290;SDS011;2159;50.906;7.152;2023-08-24T10:05:06;4.30;;;2.77;;
4290;SDS011;2159;50.906;7.152;2023-08-24T10:07:51;6.10;;;3.30;;
4290;SDS011;2159;50.906;7.152;2023-08-24T10:10:20;3.60;;;3.17;;
4290;SDS011;2159;50.906;7.152;2023-08-24T10:12:51;3.30;;;3.00;;
4290;SDS011;2159;50.906;7.152;2023-08-24T10:15:20;3.57;;;2.87;;
4290;SDS011;2159;50.906;7.152;2023-08-24T10:17:49;3.60;;;3.00;;
4290;SDS011;2159;50.906;7.152;2023-08-24T10:20:19;4.00;;;3.20;;
4290;SDS011;2159;50.906;7.152;2023-08-24T10:22:47;3.03;;;2.77;;
4290;SDS011;2159;50.906;7.152;2023-08-24T10:25:15;3.40;;;3.07;;
4290;SDS011;2159;50.906;7.152;2023-08-24T10:27:43;3.90;;;3.30;;
4290;SDS011;2159;50.906;7.152;2023-08-24T10:30:14;3.63;;;3.27;;
4290;SDS011;2159;50.906;7.152;2023-08-24T10:32:42;6.00;;;3.50;;
4290;SDS011;2159;50.906;7.152;2023-08-24T10:35:10;2.97;;;2.67;;
4290;SDS011;2159;50.906;7.152;2023-08-24T10:37:43;4.30;;;3.23;;
4290;SDS011;2159;50.906;7.152;2023-08-24T10:40:11;6.50;;;3.27;;
4290;SDS011;2159;50.906;7.152;2023-08-24T10:42:43;3.20;;;3.00;;
4290;SDS011;2159;50.906;7.152;2023-08-24T10:45:11;8.17;;;3.17;;
4290;SDS011;2159;50.906;7.152;2023-08-24T10:47:43;3.83;;;3.27;;
4290;SDS011;2159;50.906;7.152;2023-08-24T10:50:12;5.90;;;3.73;;
4290;SDS011;2159;50.906;7.152;2023-08-24T10:52:42;4.70;;;3.07;;
4290;SDS011;2159;50.906;7.152;2023-08-24T10:58:02;3.20;;;2.90;;
4290;SDS011;2159;50.906;7.152;2023-08-24T11:00:30;3.57;;;2.47;;
4290;SDS011;2159;50.906;7.152;2023-08-24T11:02:58;6.60;;;3.10;;
4290;SDS011;2159;50.906;7.152;2023-08-24T11:05:28;3.50;;;2.53;;
4290;SDS011;2159;50.906;7.152;2023-08-24T11:07:59;3.27;;;2.60;;
4290;SDS011;2159;50.906;7.152;2023-08-24T11:10:30;2.93;;;2.73;;
4290;SDS011;2159;50.906;7.152;2023-08-24T11:13:04;5.50;;;2.50;;
4290;SDS011;2159;50.906;7.152;2023-08-24T11:15:31;11.17;;;2.80;;
4290;SDS011;2159;50.906;7.152;2023-08-24T11:18:12;6.03;;;2.80;;
4290;SDS011;2159;50.906;7.152;2023-08-24T11:20:41;4.17;;;2.57;;
4290;SDS011;2159;50.906;7.152;2023-08-24T11:23:10;4.47;;;2.50;;
4290;SDS011;2159;50.906;7.152;2023-08-24T11:25:38;3.50;;;2.40;;
4290;SDS011;2159;50.906;7.152;2023-08-24T11:28:06;6.57;;;2.90;;
4290;SDS011;2159;50.906;7.152;2023-08-24T11:30:34;9.07;;;2.93;;
4290;SDS011;2159;50.906;7.152;2023-08-24T11:33:02;2.70;;;2.20;;
4290;SDS011;2159;50.906;7.152;2023-08-24T11:35:34;5.63;;;2.70;;
4290;SDS011;2159;50.906;7.152;2023-08-24T11:38:02;3.47;;;2.70;;
4290;SDS011;2159;50.906;7.152;2023-08-24T11:40:31;3.53;;;2.63;;
4290;SDS011;2159;50.906;7.152;2023-08-24T11:42:59;4.80;;;2.60;;
4290;SDS011;2159;50.906;7.152;2023-08-24T11:45:29;6.17;;;2.80;;
4290;SDS011;2159;50.906;7.152;2023-08-24T11:47:57;3.30;;;2.87;;
4290;SDS011;2159;50.906;7.152;2023-08-24T11:50:25;2.87;;;2.67;;
4290;SDS011;2159;50.906;7.152;2023-08-24T11:52:53;3.17;;;2.77;;
4290;SDS011;2159;50.906;7.152;2023-08-24T11:55:21;3.63;;;3.00;;
4290;SDS011;2159;50.906;7.152;2023-08-24T11:57:50;3.03;;;2.77;;
4290;SDS011;2159;50.906;7.152;2023-08-24T12:00:19;3.67;;;2.90;;
4290;SDS011;2159;50.906;7.152;2023-08-24T12:02:47;3.37;;;3.17;;
4290;SDS011;2159;50.906;7.152;2023-08-24T12:05:22;6.43;;;2.90;;
4290;SDS011;2159;50.906;7.152;2023-08-24T12:07:51;5.20;;;3.00;;
4290;SDS011;2159;50.906;7.152;2023-08-24T12:10:19;3.83;;;2.90;;
4290;SDS011;2159;50.906;7.152;2023-08-24T12:12:47;3.77;;;2.70;;
4290;SDS011;2159;50.906;7.152;2023-08-24T12:15:17;3.43;;;3.03;;
4290;SDS011;2159;50.906;7.152;2023-08-24T12:17:46;6.03;;;3.30;;
4290;SDS011;2159;50.906;7.152;2023-08-24T12:20:18;5.30;;;3.10;;
4290;SDS011;2159;50.906;7.152;2023-08-24T12:22:52;3.20;;;3.00;;
4290;SDS011;2159;50.906;7.152;2023-08-24T12:25:23;6.83;;;3.43;;
4290;SDS011;2159;50.906;7.152;2023-08-24T12:27:50;7.70;;;3.43;;
4290;SDS011;2159;50.906;7.152;2023-08-24T12:30:19;3.60;;;3.30;;
4290;SDS011;2159;50.906;7.152;2023-08-24T12:32:47;4.63;;;3.10;;
4290;SDS011;2159;50.906;7.152;2023-08-24T12:35:17;3.80;;;3.20;;
4290;SDS011;2159;50.906;7.152;2023-08-24T12:37:45;4.40;;;3.23;;
4290;SDS011;2159;50.906;7.152;2023-08-24T12:40:13;4.17;;;3.73;;
4290;SDS011;2159;50.906;7.152;2023-08-24T12:42:41;9.77;;;3.50;;
4290;SDS011;2159;50.906;7.152;2023-08-24T12:45:09;5.13;;;3.67;;
4290;SDS011;2159;50.906;7.152;2023-08-24T12:47:38;4.67;;;3.73;;
4290;SDS011;2159;50.906;7.152;2023-08-24T12:50:05;5.70;;;3.57;;
4290;SDS011;2159;50.906;7.152;2023-08-24T12:52:33;4.50;;;4.10;;
4290;SDS011;2159;50.906;7.152;2023-08-24T12:55:01;5.10;;;3.83;;
4290;SDS011;2159;50.906;7.152;2023-08-24T12:57:30;8.20;;;4.10;;
4290;SDS011;2159;50.906;7.152;2023-08-24T12:59:58;8.03;;;4.30;;
4290;SDS011;2159;50.906;7.152;2023-08-24T13:02:26;5.07;;;4.27;;
4290;SDS011;2159;50.906;7.152;2023-08-24T13:05:05;4.07;;;3.77;;
4290;SDS011;2159;50.906;7.152;2023-08-24T13:07:34;11.87;;;3.97;;
4290;SDS011;2159;50.906;7.152;2023-08-24T13:10:03;6.23;;;4.00;;
4290;SDS011;2159;50.906;7.152;2023-08-24T13:12:30;7.30;;;3.97;;
4290;SDS011;2159;50.906;7.152;2023-08-24T13:14:58;10.40;;;3.67;;
4290;SDS011;2159;50.906;7.152;2023-08-24T13:17:26;5.60;;;3.80;;
4290;SDS011;2159;50.906;7.152;2023-08-24T13:19:53;5.60;;;3.90;;
4290;SDS011;2159;50.906;7.152;2023-08-24T13:22:22;7.00;;;3.80;;
4290;SDS011;2159;50.906;7.152;2023-08-24T13:24:50;5.80;;;4.00;;
4290;SDS011;2159;50.906;7.152;2023-08-24T13:27:17;9.90;;;4.17;;
4290;SDS011;2159;50.906;7.152;2023-08-24T13:29:45;6.10;;;3.63;;
4290;SDS011;2159;50.906;7.152;2023-08-24T13:32:12;7.80;;;3.27;;
4290;SDS011;2159;50.906;7.152;2023-08-24T13:34:40;5.90;;;3.47;;
4290;SDS011;2159;50.906;7.152;2023-08-24T13:37:08;6.43;;;4.07;;
4290;SDS011;2159;50.906;7.152;2023-08-24T13:39:36;5.33;;;3.80;;
4290;SDS011;2159;50.906;7.152;2023-08-24T13:42:04;4.93;;;3.93;;
4290;SDS011;2159;50.906;7.152;2023-08-24T13:44:32;4.83;;;3.33;;
4290;SDS011;2159;50.906;7.152;2023-08-24T13:46:59;8.97;;;3.80;;
4290;SDS011;2159;50.906;7.152;2023-08-24T13:49:27;4.33;;;3.37;;
4290;SDS011;2159;50.906;7.152;2023-08-24T13:52:06;6.20;;;3.50;;
4290;SDS011;2159;50.906;7.152;2023-08-24T13:54:33;7.47;;;3.63;;
4290;SDS011;2159;50.906;7.152;2023-08-24T13:57:02;9.80;;;4.07;;
4290;SDS011;2159;50.906;7.152;2023-08-24T13:59:31;9.30;;;3.60;;
4290;SDS011;2159;50.906;7.152;2023-08-24T14:01:59;6.70;;;3.97;;
4290;SDS011;2159;50.906;7.152;2023-08-24T14:04:27;5.70;;;3.73;;
4290;SDS011;2159;50.906;7.152;2023-08-24T14:06:54;8.17;;;3.67;;
4290;SDS011;2159;50.906;7.152;2023-08-24T14:09:22;5.73;;;3.80;;
4290;SDS011;2159;50.906;7.152;2023-08-24T14:11:49;7.27;;;3.47;;
4290;SDS011;2159;50.906;7.152;2023-08-24T14:14:18;6.00;;;3.77;;
4290;SDS011;2159;50.906;7.152;2023-08-24T14:16:46;9.77;;;4.00;;
4290;SDS011;2159;50.906;7.152;2023-08-24T14:19:14;11.20;;;4.00;;
4290;SDS011;2159;50.906;7.152;2023-08-24T14:21:42;6.77;;;3.60;;
4290;SDS011;2159;50.906;7.152;2023-08-24T14:24:11;6.17;;;3.70;;
4290;SDS011;2159;50.906;7.152;2023-08-24T14:26:38;8.63;;;3.80;;
4290;SDS011;2159;50.906;7.152;2023-08-24T14:29:12;7.93;;;4.00;;
4290;SDS011;2159;50.906;7.152;2023-08-24T14:31:41;7.77;;;3.60;;
4290;SDS011;2159;50.906;7.152;2023-08-24T14:34:08;6.47;;;3.50;;
4290;SDS011;2159;50.906;7.152;2023-08-24T14:36:36;9.33;;;3.53;;
4290;SDS011;2159;50.906;7.152;2023-08-24T14:39:03;6.20;;;3.70;;
4290;SDS011;2159;50.906;7.152;2023-08-24T14:41:31;6.57;;;3.70;;
4290;SDS011;2159;50.906;7.152;2023-08-24T14:43:58;7.40;;;3.60;;
4290;SDS011;2159;50.906;7.152;2023-08-24T14:46:26;6.77;;;4.00;;
4290;SDS011;2159;50.906;7.152;2023-08-24T14:48:55;6.70;;;3.40;;
4290;SDS011;2159;50.906;7.152;2023-08-24T14:51:23;5.00;;;3.50;;
4290;SDS011;2159;50.906;7.152;2023-08-24T14:53:50;6.77;;;3.60;;
4290;SDS011;2159;50.906;7.152;2023-08-24T14:56:18;4.70;;;3.30;;
4290;SDS011;2159;50.906;7.152;2023-08-24T14:58:45;9.03;;;3.43;;
4290;SDS011;2159;50.906;7.152;2023-08-24T15:01:13;6.67;;;3.67;;
4290;SDS011;2159;50.906;7.152;2023-08-24T15:03:41;7.90;;;3.70;;
4290;SDS011;2159;50.906;7.152;2023-08-24T15:06:10;3.30;;;3.00;;
4290;SDS011;2159;50.906;7.152;2023-08-24T15:08:38;6.60;;;3.43;;
4290;SDS011;2159;50.906;7.152;2023-08-24T15:11:07;6.23;;;3.33;;
4290;SDS011;2159;50.906;7.152;2023-08-24T15:13:34;6.03;;;3.03;;
4290;SDS011;2159;50.906;7.152;2023-08-24T15:16:02;6.10;;;3.40;;
4290;SDS011;2159;50.906;7.152;2023-08-24T15:18:30;5.10;;;2.90;;
4290;SDS011;2159;50.906;7.152;2023-08-24T15:20:57;4.47;;;3.10;;
4290;SDS011;2159;50.906;7.152;2023-08-24T15:23:26;7.77;;;2.90;;
4290;SDS011;2159;50.906;7.152;2023-08-24T15:25:55;5.47;;;2.80;;